Flugplatz Münster Osnabrück

Bericht für EDDG

vom 23.08. um 13:20 UTC

variable Windrichtung mit 4 kt

Sichtweite 10 km oder mehr

gute Sicht, keine Wolken < 5000 ft, keine CB, keine Wettererscheinungen (CAVOK)

Temperatur 27.0°C

Taupunkt 9.0°C

Luftfeuchtigkeit 32%

Luftdruck 1025 hPa

keine wesentliche Wetteränderung innerhalb den nächsten 2 Stunden zu erwarten

EDDG 231320Z VRB04KT CAVOK 27/09 Q1025 NOSIG

Prognose für EDDG

vom 23.08. um 00:00 UTC

Zwischen 00:00 UTC und 00:00 UTC

Wind 4 kt aus 10°

Sichtweite 10 km oder mehr

keine signifikanten Wettererscheinungen

keine Wolken


Am 24.08. zwischen 00:00 und 00:00 UTC übergehend zu

Wind 6 kt aus 90°

Sichtweite 10 km oder mehr

keine signifikanten Wettererscheinungen

keine Wolken

TAF EDDG 231100Z 2312/2412 01004KT CAVOK BECMG 2406/2409 09006KT
Impressum